This is the latest recevied weather packets stored in our database for station/object DB0SVX. If no packets are shown the sender has not sent any weather packets the latest 10 day(s).
| Time | Temp. | Humidity | Pressure | Rain* | Wind** | Luminosity | Snow |
|---|---|---|---|---|---|---|---|
| 1778176522 | 12.78° C | 48% | 1012.9 hPa | 0 mm | - | - | - |
| 1778175622 | 14.44° C | 46% | 1012.7 hPa | 0 mm | - | - | - |
| 1778174723 | 15.56° C | 44% | 1012.7 hPa | 0 mm | - | - | - |
| 1778173822 | 16.67° C | 42% | 1012.7 hPa | 0 mm | - | - | - |
| 1778172922 | 17.78° C | 40% | 1012.5 hPa | 0 mm | - | - | - |
| 1778172022 | 20.56° C | 36% | 1012.5 hPa | 0 mm | - | - | - |
| 1778171122 | 23.89° C | 32% | 1012.5 hPa | 0 mm | - | - | - |
| 1778170222 | 25° C | 32% | 1012.4 hPa | 0 mm | - | - | - |
| 1778169322 | 25° C | 31% | 1012.5 hPa | 0 mm | - | - | - |
| 1778168422 | 23.33° C | 34% | 1012.4 hPa | 0 mm | - | - | - |
| 1778167523 | 21.67° C | 36% | 1012.4 hPa | 0 mm | - | - | - |
| 1778166622 | 19.44° C | 39% | 1012.4 hPa | 0 mm | - | - | - |
| 1778165722 | 19.44° C | 38% | 1012.4 hPa | 0 mm | - | - | - |
| 1778164822 | 22.78° C | 34% | 1012.4 hPa | 0 mm | - | - | - |
| 1778163922 | 23.89° C | 34% | 1012.2 hPa | 0 mm | - | - | - |
| 1778163022 | 17.78° C | 41% | 1012.5 hPa | 0 mm | - | - | - |
| 1778162122 | 17.78° C | 41% | 1012.5 hPa | 0 mm | - | - | - |
| 1778161222 | 16.67° C | 42% | 1012.5 hPa | 0 mm | - | - | - |
| 1778160322 | 17.22° C | 42% | 1012.7 hPa | 0 mm | - | - | - |
| 1778159422 | 18.33° C | 40% | 1012.4 hPa | 0 mm | - | - | - |
| 1778158522 | 16.11° C | 43% | 1012.5 hPa | 0 mm | - | - | - |
| 1778157622 | 16.67° C | 42% | 1012.4 hPa | 0 mm | - | - | - |
| 1778156722 | 17.22° C | 42% | 1012.5 hPa | 0 mm | - | - | - |
| 1778155822 | 16.67° C | 42% | 1012.5 hPa | 0 mm | - | - | - |
| 1778154923 | 18.89° C | 38% | 1012.5 hPa | 0 mm | - | - | - |
* Rain latest hour (hover to see other rain measurements)
** Current wind speed in m/s (hover to see current wind gust speed)